Pagrindinis puslapis
METAR-TAF:

METAR-TAF

Oro uostai :

Tarptautinis Trabzono oro uostas

Trabzonas, Turkija

platuma: 41-00N, ilguma: 039-43E, Aukštis: 35 m

Dabartinis oras

Ataskaita buvo paskelbta 38 minutes, ne 01:50 UTC
Vėjas 10 kt iš Pietvakarių
Temperatūra 3°C
Drėgmė 60%
Slėgis 1020 hPa
Matomumas 10 km arba daugiau
Išsisklaidę debesys ne aukštis 3500 ft

METAR: LTCG 190150Z 23010KT 9999 SCT035 03/M04 Q1020 NOSIG RMK RWY29 21001KT

Laikas: 05:28 (02:28 UTC)

Prognozė

Ataskaita buvo paskelbta 3 valandos ir 48 minutes, ne 22:40 UTC
Prognozė galioja nuo 19 metu 00 UTC su 19 metu 24 UTC
Vėjas 7 kt iš Pietvakarių
Matomumas 10 km arba daugiau
Išsisklaidę debesys ne aukštis 3500 ft
Tapsmas
nuo 19 metu 06 UTC su 19 metu 09 UTC
Vėjas 13 kt iš Vakarų/Šiaurės Vakarų
Tapsmas
nuo 19 metu 13 UTC su 19 metu 16 UTC
Vėjas 8 kt iš Pietų/Pietvakarių

TAF: LTCG 182240Z 1900/1924 22007KT 9999 SCT035 BECMG 1906/1909 29013KT BECMG 1913/1916 21008KT

Orai ataskaitas ir orų prognozės (METAR, TAF).

turimą stotys yra geltonos ir raudonos taškus žemėlapyje.

Perkelti pele per norėdami pamatyti stoties vardą.

Tada spustelėkite, norėdami matyti oro stebėjimo ir prognozės.

Norėdami pakeisti žemėlapį: spustelėkite ant žalios mygtukų su juodo kryžiaus žemyn,; žalią mygtuką su brūkšneliu, jei norite nutolinti; arba žalių rodyklių gretimoms žemėlapius.


METAR-TAF: